createdAt,value
2022-11-18T00:01:35.739Z,98.03
2022-11-18T00:04:41.685Z,95.99
2022-11-18T00:07:47.928Z,95.75
2022-11-18T00:10:53.788Z,95.37
2022-11-18T00:14:18.401Z,94.41
2022-11-18T00:17:23.929Z,94.30
2022-11-18T00:20:28.907Z,92.97
2022-11-18T00:23:35.247Z,93.44
2022-11-18T00:26:43.453Z,93.36
2022-11-18T00:29:48.688Z,93.03
2022-11-18T00:32:54.409Z,94.36
2022-11-18T00:36:00.817Z,96.30
2022-11-18T00:39:06.314Z,95.64
2022-11-18T00:42:30.265Z,96.08
2022-11-18T00:45:37.062Z,96.76
2022-11-18T00:48:42.142Z,96.17
2022-11-18T00:51:47.927Z,95.98
2022-11-18T00:54:55.045Z,96.43
2022-11-18T00:58:02.909Z,98.13
2022-11-18T01:01:08.619Z,96.55
2022-11-18T01:04:00.191Z,95.11
2022-11-18T01:07:06.054Z,92.35
2022-11-18T01:10:12.616Z,97.25
2022-11-18T01:13:30.660Z,97.96
2022-11-18T01:16:39.612Z,97.59
2022-11-18T01:19:45.548Z,98.24
2022-11-18T01:22:51.026Z,99.51
2022-11-18T01:25:57.846Z,100.00
2022-11-18T01:29:04.284Z,95.80
2022-11-18T01:32:24.010Z,94.70
2022-11-18T01:35:17.611Z,99.39
2022-11-18T01:38:25.451Z,100.00
2022-11-18T01:41:31.980Z,100.00
2022-11-18T01:45:12.564Z,100.00
2022-11-18T01:48:46.307Z,100.00
2022-11-18T01:52:06.424Z,100.00
2022-11-18T01:55:11.417Z,97.30
2022-11-18T01:58:25.101Z,96.59
2022-11-18T02:01:30.424Z,96.73
2022-11-18T02:04:37.293Z,96.58
2022-11-18T02:07:43.912Z,94.92
2022-11-18T02:10:50.176Z,93.85
2022-11-18T02:13:56.197Z,93.70
2022-11-18T02:17:29.691Z,93.42
2022-11-18T02:20:44.674Z,93.32
2022-11-18T02:24:11.451Z,92.49
2022-11-18T02:27:23.093Z,91.71
2022-11-18T02:30:23.730Z,91.72
2022-11-18T02:33:39.139Z,91.85
2022-11-18T02:36:53.177Z,91.47
2022-11-18T02:40:04.338Z,91.19
2022-11-18T02:43:42.387Z,90.80
2022-11-18T02:46:49.850Z,90.30
2022-11-18T02:50:01.525Z,90.37
2022-11-18T02:53:09.506Z,90.44
2022-11-18T02:56:07.882Z,92.14
2022-11-18T02:59:14.089Z,90.67
2022-11-18T03:02:19.524Z,89.50
2022-11-18T03:05:42.618Z,92.71
2022-11-18T03:08:53.199Z,92.37
2022-11-18T03:12:22.966Z,91.58
2022-11-18T03:15:39.764Z,92.10
2022-11-18T03:18:55.777Z,91.89
2022-11-18T03:22:20.982Z,91.26
2022-11-18T03:25:51.836Z,90.77
2022-11-18T03:29:20.951Z,90.29
2022-11-18T03:32:33.476Z,90.79
2022-11-18T03:35:34.885Z,90.86
2022-11-18T03:38:43.745Z,90.20
2022-11-18T03:41:53.108Z,91.36
2022-11-18T03:45:02.809Z,91.49
2022-11-18T03:48:21.455Z,89.97
2022-11-18T03:51:17.229Z,90.37
2022-11-18T03:54:14.719Z,89.88
2022-11-18T03:57:12.146Z,88.53
2022-11-18T04:00:09.528Z,87.75
2022-11-18T04:02:56.546Z,86.81
2022-11-18T04:05:51.360Z,87.01
2022-11-18T04:08:41.741Z,86.79
2022-11-18T04:12:01.094Z,86.58
2022-11-18T04:15:02.548Z,86.33
2022-11-18T04:18:07.509Z,85.45
2022-11-18T04:21:13.196Z,85.72
2022-11-18T07:43:20.811Z,96.05
2022-11-18T07:46:36.869Z,95.34
2022-11-18T07:49:42.132Z,94.75
2022-11-18T07:52:48.979Z,94.97
2022-11-18T07:55:57.516Z,94.73
2022-11-18T07:59:02.572Z,93.69
2022-11-18T08:02:08.821Z,92.89
2022-11-18T08:05:17.947Z,92.86
2022-11-18T08:08:21.864Z,92.87
2022-11-18T08:11:29.958Z,92.57
2022-11-18T08:14:37.035Z,92.00
2022-11-18T08:17:44.418Z,91.43
2022-11-18T08:20:51.390Z,91.52
2022-11-18T08:23:58.205Z,91.47
2022-11-18T08:27:03.475Z,91.54
2022-11-18T08:30:08.805Z,91.53
2022-11-18T08:33:13.666Z,91.64
2022-11-18T08:36:28.989Z,91.75
2022-11-18T08:39:35.891Z,91.96
2022-11-18T08:42:41.681Z,91.83
2022-11-18T08:45:48.691Z,91.38
2022-11-18T08:48:54.526Z,91.17
2022-11-18T08:51:59.267Z,90.24
2022-11-18T08:55:05.757Z,89.25
2022-11-18T08:58:11.984Z,89.43
2022-11-18T09:01:21.224Z,90.61
2022-11-18T09:04:26.168Z,90.87
2022-11-18T09:07:33.446Z,90.84
2022-11-18T09:10:40.764Z,90.92
2022-11-18T09:14:39.015Z,90.70
2022-11-18T09:16:53.492Z,89.95
2022-11-18T09:19:59.015Z,89.85
2022-11-18T09:23:04.630Z,89.27
2022-11-18T09:26:21.475Z,89.02
2022-11-18T09:29:29.254Z,88.50
2022-11-18T09:32:34.721Z,88.12
2022-11-18T09:35:40.695Z,88.86
2022-11-18T09:38:52.937Z,88.74
2022-11-18T09:42:07.858Z,88.50
2022-11-18T09:45:32.273Z,88.83
2022-11-18T09:48:57.419Z,88.59
2022-11-18T09:52:04.974Z,88.82
2022-11-18T09:55:10.466Z,88.84
2022-11-18T09:58:16.713Z,88.74
2022-11-18T10:01:31.305Z,89.06
2022-11-18T10:04:37.361Z,89.58
2022-11-18T10:07:59.575Z,89.19
2022-11-18T10:11:37.296Z,89.43
2022-11-18T10:15:08.522Z,89.58
2022-11-18T10:19:04.326Z,89.88
2022-11-18T10:25:18.375Z,90.48
2022-11-18T10:28:39.580Z,90.60
2022-11-18T10:31:45.554Z,90.56
2022-11-18T10:34:51.637Z,90.60
2022-11-18T10:38:12.217Z,90.91
2022-11-18T10:41:10.776Z,90.22
2022-11-18T10:44:11.894Z,90.26
2022-11-18T10:47:42.173Z,90.46
2022-11-18T10:50:56.213Z,90.66
2022-11-18T10:54:01.318Z,90.17
2022-11-18T10:57:11.989Z,90.17
2022-11-18T11:00:15.294Z,90.10
2022-11-18T11:03:43.590Z,90.23
2022-11-18T11:06:52.226Z,90.48
2022-11-18T11:09:57.657Z,90.87
2022-11-18T11:13:13.755Z,90.54
2022-11-18T11:16:24.891Z,90.91
2022-11-18T11:19:27.472Z,91.37
2022-11-18T11:22:33.079Z,90.26
2022-11-18T11:29:31.558Z,90.14
2022-11-18T11:33:03.079Z,90.26
2022-11-18T11:36:35.192Z,90.29
2022-11-18T11:39:53.988Z,90.46
2022-11-18T11:43:29.877Z,90.68
2022-11-18T11:47:30.252Z,91.05
2022-11-18T11:51:05.439Z,91.42
2022-11-18T11:54:42.589Z,91.90
2022-11-18T11:58:20.724Z,91.73
2022-11-18T12:01:50.550Z,91.66
2022-11-18T12:05:12.240Z,91.85
2022-11-18T12:08:31.896Z,90.63
2022-11-18T12:12:21.068Z,89.87
2022-11-18T12:16:00.747Z,89.96
2022-11-18T12:19:22.681Z,91.14
2022-11-18T12:22:28.226Z,91.32
2022-11-18T12:26:03.895Z,91.04
2022-11-18T12:29:10.105Z,90.57
2022-11-18T12:32:14.640Z,90.80
2022-11-18T12:35:25.845Z,90.83
2022-11-18T12:38:45.824Z,90.99
2022-11-18T12:42:31.514Z,90.29
2022-11-18T12:46:00.809Z,90.31
2022-11-18T12:49:06.214Z,90.26
2022-11-18T12:52:22.120Z,90.94
2022-11-18T12:55:41.645Z,90.97
2022-11-18T12:58:47.433Z,90.94
2022-11-18T13:01:53.499Z,90.83
2022-11-18T13:04:59.440Z,88.76
2022-11-18T13:08:27.072Z,88.32
2022-11-18T13:11:50.173Z,88.53
2022-11-18T16:28:29.700Z,100.00
2022-11-18T16:55:00.012Z,100.00
2022-11-18T16:58:05.960Z,100.00
2022-11-18T17:01:23.480Z,100.00
2022-11-18T17:04:20.040Z,100.00
2022-11-18T17:07:25.994Z,100.00
2022-11-18T17:10:32.203Z,100.00
2022-11-18T17:13:38.841Z,100.00
2022-11-18T17:16:45.140Z,100.00
2022-11-18T17:19:51.325Z,100.00
2022-11-18T17:22:57.219Z,100.00
2022-11-18T17:26:02.934Z,100.00
2022-11-18T17:29:11.766Z,100.00
2022-11-18T17:32:17.348Z,100.00
2022-11-18T17:35:25.281Z,100.00
2022-11-18T17:38:31.758Z,100.00
2022-11-18T17:41:56.688Z,100.00
2022-11-18T17:45:02.702Z,100.00
2022-11-18T17:48:08.760Z,100.00
2022-11-18T17:51:19.810Z,100.00
2022-11-18T17:54:25.412Z,100.00
2022-11-18T17:57:31.101Z,100.00
2022-11-18T18:00:38.472Z,100.00
2022-11-18T18:03:45.010Z,100.00
2022-11-18T18:06:50.065Z,100.00
2022-11-18T18:09:56.151Z,100.00
2022-11-18T18:13:20.902Z,100.00
2022-11-18T18:16:30.206Z,100.00
2022-11-18T18:19:37.512Z,100.00
2022-11-18T18:22:43.630Z,100.00
2022-11-18T18:25:49.550Z,100.00
2022-11-18T18:28:55.847Z,100.00
2022-11-18T18:32:01.445Z,100.00
2022-11-18T18:35:07.250Z,100.00
2022-11-18T18:38:12.955Z,100.00
2022-11-18T18:41:24.051Z,100.00
2022-11-18T18:44:29.890Z,100.00
2022-11-18T18:47:35.372Z,100.00
2022-11-18T18:50:41.443Z,100.00
2022-11-18T18:53:49.167Z,100.00
2022-11-18T18:56:58.598Z,100.00
2022-11-18T19:00:03.927Z,100.00
2022-11-18T19:03:11.241Z,100.00
2022-11-18T19:06:54.891Z,100.00
2022-11-18T19:09:41.258Z,100.00
2022-11-18T19:12:54.178Z,100.00
2022-11-18T19:15:59.703Z,100.00
2022-11-18T19:19:06.486Z,100.00
2022-11-18T19:22:12.070Z,100.00
2022-11-18T19:25:17.714Z,100.00
2022-11-18T19:28:25.141Z,100.00
2022-11-18T19:35:16.646Z,100.00
2022-11-18T19:38:22.511Z,100.00
2022-11-18T19:41:28.453Z,100.00
2022-11-18T19:44:34.035Z,100.00
2022-11-18T19:47:39.334Z,100.00
2022-11-18T19:50:45.154Z,100.00
2022-11-18T19:53:51.369Z,100.00
2022-11-18T19:56:57.667Z,100.00
2022-11-18T20:00:03.590Z,100.00
2022-11-18T20:03:09.081Z,100.00
2022-11-18T20:09:08.356Z,100.00
2022-11-18T20:12:14.057Z,100.00
2022-11-18T20:15:20.811Z,100.00
2022-11-18T20:18:28.032Z,100.00
2022-11-18T20:21:35.228Z,100.00
2022-11-18T20:24:40.806Z,100.00
2022-11-18T20:27:46.144Z,100.00
2022-11-18T20:30:52.022Z,100.00
2022-11-18T20:34:00.387Z,100.00
2022-11-18T20:37:05.957Z,100.00
2022-11-18T20:40:11.286Z,100.00
2022-11-18T20:43:22.490Z,100.00
2022-11-18T20:50:04.629Z,100.00
2022-11-18T20:53:10.157Z,100.00
2022-11-18T20:56:15.693Z,100.00
2022-11-18T20:59:21.616Z,100.00
2022-11-18T21:02:27.443Z,100.00
2022-11-18T21:05:32.748Z,100.00
2022-11-18T21:08:39.356Z,100.00
2022-11-18T21:11:47.434Z,100.00
2022-11-18T21:14:55.616Z,100.00
2022-11-18T21:18:01.187Z,100.00
2022-11-18T21:21:25.303Z,100.00
2022-11-18T21:24:36.833Z,100.00
2022-11-18T21:27:42.242Z,100.00
2022-11-18T21:30:48.078Z,100.00
2022-11-18T21:33:54.280Z,100.00
2022-11-18T21:37:00.115Z,100.00
2022-11-18T21:40:05.552Z,100.00
2022-11-18T21:43:11.295Z,100.00
2022-11-18T21:46:25.544Z,100.00
2022-11-18T21:49:30.990Z,100.00
2022-11-18T21:52:36.497Z,100.00
2022-11-18T21:55:42.266Z,100.00
2022-11-18T21:58:47.171Z,100.00
2022-11-18T22:01:52.059Z,100.00
2022-11-18T22:05:01.550Z,100.00
2022-11-18T22:08:06.855Z,100.00
2022-11-18T22:11:14.461Z,100.00
2022-11-18T22:14:19.895Z,100.00
